Time;durP1;ratioP1;P1;durP2;ratioP2;P2;SDS_P1;SDS_P2;PMS_P1;PMS_P2;Temp;Humidity;BMP_temperature;BMP_pressure;BME280_temperature;BME280_humidity;BME280_pressure;Samples;Min_cycle;Max_cycle;Signal;HPM_P1;HPM_P2
2021/08/21 00:02:06;;;;;;;3.70;3.40;;;20.60;68.50;;;;;;5114424;28;20173;-60
2021/08/21 00:04:31;;;;;;;3.42;3.13;;;20.60;68.60;;;;;;5113891;28;20173;-60
2021/08/21 00:06:57;;;;;;;3.85;3.55;;;20.60;68.50;;;;;;5113594;28;20180;-60
2021/08/21 00:09:22;;;;;;;5.05;3.83;;;20.60;68.60;;;;;;5113943;28;20199;-61
2021/08/21 00:11:48;;;;;;;3.92;3.63;;;20.60;68.50;;;;;;5113420;28;20302;-61
2021/08/21 00:14:13;;;;;;;3.60;3.30;;;20.60;68.50;;;;;;5113871;28;20173;-60
2021/08/21 00:16:39;;;;;;;3.85;3.55;;;20.60;68.50;;;;;;5113549;28;20177;-60
2021/08/21 00:19:04;;;;;;;3.67;3.38;;;20.60;68.50;;;;;;5113153;28;20212;-60
2021/08/21 00:21:30;;;;;;;3.85;3.45;;;20.60;68.50;;;;;;5113494;28;20173;-60
2021/08/21 00:23:55;;;;;;;3.80;3.50;;;20.60;68.50;;;;;;5113725;28;20248;-60
2021/08/21 00:26:21;;;;;;;3.50;3.20;;;20.60;68.50;;;;;;5112760;28;20208;-60
2021/08/21 00:28:46;;;;;;;4.13;3.50;;;20.60;68.40;;;;;;5113623;28;20256;-60
2021/08/21 00:31:12;;;;;;;3.60;3.35;;;20.60;68.40;;;;;;5113632;28;20526;-60
2021/08/21 00:33:38;;;;;;;3.58;3.35;;;20.60;68.40;;;;;;5094287;28;20168;-61
2021/08/21 00:36:03;;;;;;;3.50;3.28;;;20.60;68.40;;;;;;5095359;28;20173;-61
2021/08/21 00:38:29;;;;;;;3.33;3.13;;;20.60;68.30;;;;;;5113062;28;20685;-60
2021/08/21 00:40:54;;;;;;;3.60;3.30;;;20.60;68.30;;;;;;5112706;28;20627;-60
2021/08/21 00:43:20;;;;;;;3.75;3.45;;;20.60;68.30;;;;;;5094901;28;20184;-60
2021/08/21 00:45:45;;;;;;;3.30;3.08;;;20.60;68.30;;;;;;5113325;28;20212;-61
2021/08/21 00:48:11;;;;;;;3.25;2.97;;;20.50;68.30;;;;;;5112662;28;20180;-61
2021/08/21 00:50:37;;;;;;;3.60;3.30;;;20.60;68.30;;;;;;5113333;28;20194;-61
2021/08/21 00:53:02;;;;;;;3.20;3.00;;;20.50;68.20;;;;;;5113196;28;20180;-60
2021/08/21 00:55:28;;;;;;;3.40;2.60;;;20.50;68.20;;;;;;5112378;28;20293;-60
2021/08/21 00:57:54;;;;;;;3.80;3.50;;;20.50;68.20;;;;;;5113104;28;20650;-61
2021/08/21 01:00:19;;;;;;;3.42;3.13;;;20.60;68.20;;;;;;5112468;28;20239;-60
2021/08/21 01:02:45;;;;;;;3.28;3.00;;;20.50;68.10;;;;;;5112178;28;20194;-60
2021/08/21 01:05:14;;;;;;;3.30;3.00;;;20.50;68.10;;;;;;5094520;28;20177;-60
2021/08/21 01:07:39;;;;;;;3.13;2.92;;;20.50;68.10;;;;;;5112831;28;20592;-60
2021/08/21 01:10:07;;;;;;;3.90;3.50;;;20.50;68.10;;;;;;5112519;28;20173;-60
2021/08/21 01:12:32;;;;;;;3.67;3.38;;;20.50;68.10;;;;;;5112510;28;20200;-60
2021/08/21 01:14:58;;;;;;;4.00;3.65;;;20.50;68.10;;;;;;5094028;28;20627;-60
2021/08/21 01:17:23;;;;;;;3.53;3.22;;;20.50;68.10;;;;;;5094237;28;20170;-60
2021/08/21 01:19:49;;;;;;;3.15;2.95;;;20.50;68.10;;;;;;5094502;28;20249;-60
2021/08/21 01:22:17;;;;;;;3.85;3.55;;;20.50;68.10;;;;;;5112195;28;20177;-60
2021/08/21 01:24:43;;;;;;;3.47;3.17;;;20.50;68.10;;;;;;5112086;28;20725;-60
2021/08/21 01:27:38;;;;;;;3.50;3.20;;;20.50;68.10;;;;;;5112589;28;20218;-60
2021/08/21 01:30:04;;;;;;;3.63;3.33;;;20.50;68.10;;;;;;5098556;28;20693;-60
2021/08/21 01:32:29;;;;;;;3.33;3.03;;;20.50;68.00;;;;;;5112198;28;20711;-60
2021/08/21 01:34:55;;;;;;;3.40;3.10;;;20.50;68.10;;;;;;5112551;28;20268;-61
2021/08/21 01:37:21;;;;;;;4.07;3.65;;;20.50;68.10;;;;;;5111447;28;20165;-61
2021/08/21 01:39:47;;;;;;;4.55;3.10;;;20.50;68.00;;;;;;5112383;28;20205;-60
2021/08/21 01:42:13;;;;;;;3.10;2.83;;;20.50;68.00;;;;;;5112545;28;20569;-60
2021/08/21 01:44:39;;;;;;;3.90;3.10;;;20.50;68.00;;;;;;5111617;28;20804;-60
2021/08/21 01:47:04;;;;;;;2.80;2.60;;;20.50;68.00;;;;;;5112543;28;20169;-60
2021/08/21 01:49:30;;;;;;;3.20;2.90;;;20.40;67.90;;;;;;5112005;28;20225;-61
2021/08/21 01:52:02;;;;;;;3.78;3.47;;;20.40;67.90;;;;;;5111621;28;20173;-61
2021/08/21 01:54:27;;;;;;;3.20;2.90;;;20.40;67.90;;;;;;5112120;28;20227;-61
2021/08/21 01:56:57;;;;;;;3.78;3.38;;;20.40;67.90;;;;;;5112352;28;20173;-60
2021/08/21 01:59:25;;;;;;;3.17;2.97;;;20.40;67.90;;;;;;5111269;28;20209;-60
2021/08/21 02:01:51;;;;;;;4.15;2.97;;;20.40;67.90;;;;;;5112429;28;20516;-60
2021/08/21 02:04:17;;;;;;;3.80;3.50;;;20.40;67.90;;;;;;5111584;28;20173;-60
2021/08/21 02:06:43;;;;;;;3.40;3.10;;;20.40;67.90;;;;;;5111725;28;20177;-61
2021/08/21 02:09:10;;;;;;;4.78;3.33;;;20.40;67.90;;;;;;5112354;28;20599;-61
2021/08/21 02:11:36;;;;;;;3.35;3.05;;;20.40;67.80;;;;;;5111319;28;20597;-60
2021/08/21 02:14:01;;;;;;;3.17;2.88;;;20.40;67.80;;;;;;5115822;28;20283;-61
2021/08/21 02:16:27;;;;;;;3.67;3.38;;;20.40;67.80;;;;;;5116032;28;20614;-60
2021/08/21 02:18:53;;;;;;;3.65;3.35;;;20.40;67.80;;;;;;5115422;28;20201;-60
2021/08/21 02:21:19;;;;;;;3.72;3.13;;;20.40;67.80;;;;;;5116215;28;20602;-59
2021/08/21 02:23:46;;;;;;;3.22;2.92;;;20.30;67.80;;;;;;5115871;28;20609;-60
2021/08/21 02:26:11;;;;;;;3.72;3.30;;;20.40;67.80;;;;;;5115523;28;20191;-60
2021/08/21 02:28:37;;;;;;;3.05;2.85;;;20.40;67.80;;;;;;5115926;28;20172;-60
2021/08/21 02:31:02;;;;;;;3.60;3.30;;;20.40;67.80;;;;;;5116233;28;20173;-61
2021/08/21 02:33:28;;;;;;;3.40;3.10;;;20.40;67.80;;;;;;5115138;28;20165;-61
2021/08/21 02:35:53;;;;;;;3.50;3.20;;;20.40;67.80;;;;;;5116085;28;20173;-61
2021/08/21 02:38:19;;;;;;;3.42;3.22;;;20.40;67.70;;;;;;5116217;28;20169;-61
2021/08/21 02:40:44;;;;;;;3.40;3.10;;;20.30;67.70;;;;;;5114863;28;20273;-60
2021/08/21 02:43:12;;;;;;;3.85;2.97;;;20.40;67.70;;;;;;5116101;28;20169;-61
2021/08/21 02:45:37;;;;;;;3.47;3.17;;;20.30;67.60;;;;;;5115642;28;20173;-60
2021/08/21 02:48:03;;;;;;;3.10;2.90;;;20.40;67.70;;;;;;5115080;28;20188;-61
2021/08/21 02:50:29;;;;;;;3.33;3.13;;;20.40;67.70;;;;;;5115437;28;20261;-61
2021/08/21 02:52:54;;;;;;;4.38;3.03;;;20.40;67.70;;;;;;5115599;28;20573;-61
2021/08/21 02:55:20;;;;;;;3.38;3.17;;;20.40;67.70;;;;;;5114707;28;20639;-60
2021/08/21 02:57:45;;;;;;;3.47;3.15;;;20.40;67.70;;;;;;5115577;28;20234;-60
2021/08/21 03:00:11;;;;;;;3.10;2.90;;;20.40;67.70;;;;;;5115346;28;20204;-60
2021/08/21 03:02:37;;;;;;;3.60;3.30;;;20.30;67.50;;;;;;5114451;28;20264;-60
2021/08/21 03:05:03;;;;;;;3.60;3.15;;;20.40;67.70;;;;;;5115631;28;20173;-60
2021/08/21 03:07:29;;;;;;;3.40;2.88;;;20.30;67.60;;;;;;5114780;28;20173;-61
2021/08/21 03:09:54;;;;;;;3.70;3.40;;;20.30;67.50;;;;;;5115534;28;20234;-60
2021/08/21 03:12:20;;;;;;;3.95;3.40;;;20.30;67.50;;;;;;5115101;28;20260;-60
2021/08/21 03:14:45;;;;;;;3.13;2.90;;;20.30;67.50;;;;;;5114643;28;20268;-60
2021/08/21 03:17:11;;;;;;;2.97;2.67;;;20.30;67.50;;;;;;5115262;28;20294;-60
2021/08/21 03:19:37;;;;;;;2.90;2.70;;;20.30;67.50;;;;;;5114738;28;20295;-60
2021/08/21 03:22:03;;;;;;;3.78;3.17;;;20.30;67.60;;;;;;5114293;28;20174;-59
2021/08/21 03:24:28;;;;;;;3.25;2.92;;;20.30;67.50;;;;;;5114113;28;20239;-60
2021/08/21 03:26:53;;;;;;;3.00;2.80;;;20.30;67.50;;;;;;5115388;28;20233;-59
2021/08/21 03:29:19;;;;;;;3.40;3.13;;;20.30;67.50;;;;;;5114506;28;20173;-60
2021/08/21 03:31:44;;;;;;;3.33;2.55;;;20.30;67.50;;;;;;5114850;28;20481;-60
2021/08/21 03:34:10;;;;;;;3.10;2.78;;;20.30;67.60;;;;;;5114889;28;20169;-60
2021/08/21 03:36:35;;;;;;;4.53;3.13;;;20.30;67.50;;;;;;5113752;28;20173;-61
2021/08/21 03:39:01;;;;;;;3.00;2.80;;;20.30;67.50;;;;;;5114679;28;20204;-60
2021/08/21 03:41:26;;;;;;;2.83;2.60;;;20.30;67.50;;;;;;5114475;28;20173;-60
2021/08/21 03:43:52;;;;;;;3.58;3.03;;;20.30;67.60;;;;;;5114041;28;20180;-60
2021/08/21 03:46:18;;;;;;;3.00;2.80;;;20.30;67.50;;;;;;5114609;28;20172;-60
2021/08/21 03:48:43;;;;;;;2.53;2.33;;;20.30;67.60;;;;;;5114210;28;20627;-61
2021/08/21 03:51:09;;;;;;;2.97;2.78;;;20.30;67.60;;;;;;5113726;28;20184;-60
2021/08/21 03:53:34;;;;;;;2.70;2.50;;;20.30;67.50;;;;;;5114267;28;20173;-60
2021/08/21 03:56:00;;;;;;;2.60;2.40;;;20.30;67.50;;;;;;5114282;28;20173;-60
2021/08/21 03:58:25;;;;;;;2.92;2.53;;;20.30;67.50;;;;;;5113223;28;20640;-60
2021/08/21 04:00:51;;;;;;;2.65;2.45;;;20.30;67.50;;;;;;5114117;28;20654;-61
2021/08/21 04:03:16;;;;;;;3.22;2.83;;;20.30;67.60;;;;;;5114118;28;20179;-60
2021/08/21 04:05:42;;;;;;;2.50;2.30;;;20.30;67.60;;;;;;5113073;28;20700;-60
2021/08/21 04:08:07;;;;;;;2.88;2.67;;;20.30;67.60;;;;;;5114318;28;20192;-60
2021/08/21 04:10:33;;;;;;;2.80;2.60;;;20.30;67.60;;;;;;5113739;28;20607;-60
2021/08/21 04:12:58;;;;;;;5.95;2.20;;;20.30;67.60;;;;;;5113429;28;20635;-60
2021/08/21 04:15:24;;;;;;;2.63;2.30;;;20.30;67.60;;;;;;5113752;28;20643;-60
2021/08/21 04:17:49;;;;;;;2.30;2.17;;;20.30;67.70;;;;;;5113158;28;20632;-60
2021/08/21 04:20:15;;;;;;;2.50;2.30;;;20.30;67.70;;;;;;5113811;28;20201;-59
2021/08/21 04:22:40;;;;;;;2.58;2.38;;;20.30;67.70;;;;;;5113638;28;20619;-59
2021/08/21 04:25:06;;;;;;;2.58;2.38;;;20.20;67.60;;;;;;5113253;28;20265;-59
2021/08/21 04:27:32;;;;;;;2.42;2.22;;;20.30;67.70;;;;;;5113486;28;20176;-59
2021/08/21 04:29:57;;;;;;;2.42;2.08;;;20.30;67.70;;;;;;5113593;28;20173;-59
2021/08/21 04:32:23;;;;;;;2.70;2.50;;;20.30;67.70;;;;;;5112603;28;20169;-59
2021/08/21 04:34:48;;;;;;;2.92;2.20;;;20.30;67.70;;;;;;5112989;28;20504;-60
2021/08/21 04:37:14;;;;;;;2.35;2.15;;;20.30;67.70;;;;;;5113145;28;20644;-60
2021/08/21 04:39:39;;;;;;;2.17;2.08;;;20.20;67.60;;;;;;5112918;28;20225;-59
2021/08/21 04:42:05;;;;;;;2.53;2.10;;;20.20;67.60;;;;;;5113471;28;20616;-60
2021/08/21 04:44:30;;;;;;;2.50;2.30;;;20.20;67.60;;;;;;5113059;28;20620;-59
2021/08/21 04:46:56;;;;;;;2.40;2.20;;;20.30;67.70;;;;;;5112914;28;20169;-60
2021/08/21 04:49:22;;;;;;;2.22;2.00;;;20.20;67.70;;;;;;5112823;28;20174;-60
2021/08/21 04:51:47;;;;;;;2.40;2.20;;;20.30;67.70;;;;;;5113598;28;20169;-60
2021/08/21 04:54:13;;;;;;;2.55;2.40;;;20.20;67.70;;;;;;5112692;28;20165;-60
2021/08/21 04:56:38;;;;;;;2.78;2.15;;;20.30;68.60;;;;;;5112949;28;20180;-60
2021/08/21 04:59:04;;;;;;;2.33;2.13;;;20.20;67.60;;;;;;5113183;28;20663;-60
2021/08/21 05:01:29;;;;;;;2.47;2.28;;;20.30;67.70;;;;;;5112023;28;20177;-61
2021/08/21 05:03:55;;;;;;;2.13;2.03;;;20.20;67.70;;;;;;5112750;28;20169;-60
2021/08/21 05:06:20;;;;;;;2.42;2.17;;;20.30;67.70;;;;;;5112840;28;20623;-60
2021/08/21 05:08:46;;;;;;;2.38;2.20;;;20.30;67.70;;;;;;5112273;28;20165;-60
2021/08/21 05:11:11;;;;;;;2.42;2.22;;;20.30;67.70;;;;;;5113203;28;20218;-60
2021/08/21 05:13:37;;;;;;;2.10;2.00;;;20.30;67.70;;;;;;5112671;28;20176;-59
2021/08/21 05:16:02;;;;;;;2.45;2.25;;;20.30;67.70;;;;;;5112049;28;20260;-60
2021/08/21 05:18:35;;;;;;;2.97;2.63;;;20.30;67.70;;;;;;5112394;28;20551;-60
2021/08/21 05:21:08;;;;;;;2.03;1.80;;;20.30;67.70;;;;;;5113005;28;20176;-59
2021/08/21 05:23:34;;;;;;;2.55;2.35;;;20.30;67.70;;;;;;5112408;28;20221;-59
2021/08/21 05:26:00;;;;;;;2.58;2.40;;;20.30;67.60;;;;;;5112770;28;20204;-59
2021/08/21 05:28:25;;;;;;;2.42;2.22;;;20.30;67.70;;;;;;5093638;28;20623;-60
2021/08/21 05:30:51;;;;;;;2.72;2.53;;;20.30;67.70;;;;;;5112598;28;20644;-59
2021/08/21 05:33:17;;;;;;;2.45;2.25;;;20.30;67.70;;;;;;5112736;28;20169;-59
2021/08/21 05:35:45;;;;;;;2.20;2.00;;;20.30;67.60;;;;;;5111707;28;20530;-60
2021/08/21 05:38:11;;;;;;;2.88;2.53;;;20.60;67.90;;;;;;5112717;28;20183;-59
2021/08/21 05:40:37;;;;;;;2.50;2.30;;;20.30;67.70;;;;;;5112099;28;20201;-59
2021/08/21 05:43:03;;;;;;;2.70;2.50;;;20.30;67.70;;;;;;5111891;28;20191;-59
2021/08/21 05:45:28;;;;;;;2.53;2.33;;;20.30;67.70;;;;;;5112024;28;20187;-59
2021/08/21 05:47:54;;;;;;;2.13;1.95;;;20.30;67.70;;;;;;5112290;28;20324;-60
2021/08/21 05:50:21;;;;;;;2.95;2.75;;;20.30;67.70;;;;;;5111822;28;20165;-59
2021/08/21 05:52:46;;;;;;;2.70;2.50;;;20.30;67.70;;;;;;5112285;28;20661;-60
2021/08/21 05:55:15;;;;;;;2.42;2.22;;;20.30;67.70;;;;;;5112475;28;20267;-60
2021/08/21 05:57:40;;;;;;;2.58;2.20;;;20.30;67.70;;;;;;5111203;28;20262;-60
2021/08/21 06:00:07;;;;;;;2.40;2.20;;;20.30;67.70;;;;;;5112014;28;20224;-60
2021/08/21 06:02:32;;;;;;;2.35;2.15;;;20.30;67.70;;;;;;5112000;28;20200;-59
2021/08/21 06:04:57;;;;;;;3.55;2.78;;;20.30;67.70;;;;;;5111699;28;20181;-60
2021/08/21 06:07:23;;;;;;;2.10;2.00;;;20.30;67.70;;;;;;5111952;28;20172;-60
2021/08/21 06:09:49;;;;;;;2.28;2.08;;;20.30;67.70;;;;;;5112112;28;20243;-60
2021/08/21 06:12:14;;;;;;;2.65;2.42;;;20.30;67.80;;;;;;5111492;28;20192;-60
2021/08/21 06:14:40;;;;;;;2.10;2.00;;;20.30;67.70;;;;;;5111680;28;20185;-60
2021/08/21 06:17:09;;;;;;;2.65;2.50;;;20.30;67.70;;;;;;5112404;28;20192;-60
2021/08/21 06:19:35;;;;;;;2.53;2.33;;;20.30;67.70;;;;;;5110952;28;20208;-59
2021/08/21 06:22:00;;;;;;;2.70;2.50;;;20.40;67.80;;;;;;5112141;28;20185;-59
2021/08/21 06:24:26;;;;;;;2.13;2.03;;;20.30;67.70;;;;;;5110974;28;20305;-59
2021/08/21 06:26:51;;;;;;;2.55;2.10;;;20.30;67.70;;;;;;5111915;28;20165;-59
2021/08/21 06:29:17;;;;;;;2.83;2.63;;;20.30;67.70;;;;;;5111857;28;20561;-60
2021/08/21 06:31:42;;;;;;;2.55;2.35;;;20.40;67.90;;;;;;5111145;28;20499;-60
2021/08/21 06:34:08;;;;;;;2.45;2.25;;;20.40;67.80;;;;;;5112010;28;20206;-60
2021/08/21 06:36:34;;;;;;;2.90;2.30;;;20.40;67.90;;;;;;5111727;28;20569;-60
2021/08/21 06:38:59;;;;;;;2.20;2.10;;;20.40;67.90;;;;;;5111199;28;20212;-60
2021/08/21 06:41:25;;;;;;;2.28;2.17;;;20.40;67.90;;;;;;5111398;28;20647;-59
2021/08/21 06:43:50;;;;;;;2.25;2.10;;;20.40;67.90;;;;;;5111484;28;20170;-59
2021/08/21 06:46:16;;;;;;;2.38;2.20;;;20.40;67.90;;;;;;5111080;28;20204;-59
2021/08/21 06:48:41;;;;;;;2.90;2.58;;;20.40;67.90;;;;;;5111417;28;20298;-60
2021/08/21 06:51:07;;;;;;;2.30;2.10;;;20.40;68.00;;;;;;5111592;28;20192;-60
2021/08/21 06:53:32;;;;;;;2.10;2.00;;;20.40;68.00;;;;;;5110423;28;20184;-60
2021/08/21 06:56:01;;;;;;;2.15;2.05;;;20.40;68.00;;;;;;5110803;28;20634;-60
2021/08/21 06:58:27;;;;;;;4.93;2.50;;;20.40;68.00;;;;;;5111440;28;20177;-59
2021/08/21 07:00:53;;;;;;;2.22;2.03;;;20.40;68.00;;;;;;5114874;28;20173;-60
2021/08/21 07:03:21;;;;;;;2.85;2.30;;;20.40;68.00;;;;;;5115498;28;20618;-60
2021/08/21 07:05:47;;;;;;;2.60;2.40;;;20.40;68.00;;;;;;5115125;28;20632;-59
2021/08/21 07:08:12;;;;;;;2.42;2.22;;;20.40;68.00;;;;;;5114565;28;20176;-60
2021/08/21 07:10:39;;;;;;;1.90;1.80;;;20.40;68.00;;;;;;5114694;28;20173;-60
2021/08/21 07:13:04;;;;;;;2.78;2.30;;;20.40;68.80;;;;;;5115105;28;20194;-60
2021/08/21 07:15:32;;;;;;;2.53;2.35;;;20.40;68.00;;;;;;5114359;28;20177;-59
2021/08/21 07:17:58;;;;;;;2.25;2.05;;;20.40;68.00;;;;;;5114932;28;20173;-59
2021/08/21 07:20:23;;;;;;;2.67;2.47;;;20.40;68.00;;;;;;5114661;28;20215;-59
2021/08/21 07:22:49;;;;;;;2.72;2.45;;;20.40;68.00;;;;;;5114200;28;20180;-60
2021/08/21 07:25:14;;;;;;;2.20;2.00;;;20.50;67.80;;;;;;5114923;28;20214;-60
2021/08/21 07:27:40;;;;;;;2.50;2.13;;;20.50;67.80;;;;;;5114784;28;20177;-60
2021/08/21 07:30:06;;;;;;;2.22;2.13;;;20.50;67.70;;;;;;5114604;28;20200;-60
2021/08/21 07:32:31;;;;;;;3.08;2.53;;;20.50;67.90;;;;;;5114777;28;20169;-59
2021/08/21 07:34:57;;;;;;;2.70;2.25;;;20.50;68.00;;;;;;5114305;28;20191;-60
2021/08/21 07:37:22;;;;;;;2.17;2.08;;;20.50;68.00;;;;;;5114796;28;20177;-60
2021/08/21 07:39:48;;;;;;;2.45;2.25;;;20.50;68.00;;;;;;5114570;28;20224;-59
2021/08/21 07:42:13;;;;;;;2.80;2.10;;;20.50;68.10;;;;;;5113941;28;20246;-59
2021/08/21 07:44:39;;;;;;;2.45;2.25;;;20.50;68.20;;;;;;5114478;28;20230;-59
2021/08/21 07:47:05;;;;;;;3.03;2.00;;;20.50;68.20;;;;;;5114657;28;20248;-60
2021/08/21 07:49:30;;;;;;;5.45;2.25;;;20.50;68.10;;;;;;5113688;28;20197;-59
2021/08/21 07:51:56;;;;;;;2.30;2.03;;;20.50;68.10;;;;;;5114715;28;20173;-60
2021/08/21 07:54:21;;;;;;;3.13;2.53;;;20.50;68.10;;;;;;5114290;28;20173;-59
2021/08/21 07:56:47;;;;;;;2.50;2.30;;;20.60;68.30;;;;;;5113713;28;20184;-60
2021/08/21 07:59:12;;;;;;;2.30;2.10;;;20.60;68.00;;;;;;5114502;28;20213;-59
2021/08/21 08:01:38;;;;;;;3.42;2.50;;;20.60;68.00;;;;;;5114311;28;20168;-60
2021/08/21 08:04:03;;;;;;;3.03;2.72;;;20.60;68.20;;;;;;5113862;28;20264;-60
2021/08/21 08:06:29;;;;;;;3.03;2.72;;;20.60;68.00;;;;;;5114059;28;20268;-59
2021/08/21 08:08:54;;;;;;;3.90;3.50;;;20.70;68.00;;;;;;5114213;28;20169;-59
2021/08/21 08:11:20;;;;;;;3.80;3.25;;;20.70;67.80;;;;;;5112072;28;20188;-59
2021/08/21 08:13:45;;;;;;;3.33;2.88;;;20.80;68.00;;;;;;5114046;28;20725;-59
2021/08/21 08:16:11;;;;;;;3.83;3.10;;;20.80;68.00;;;;;;5114260;28;20260;-59
2021/08/21 08:18:36;;;;;;;3.30;3.00;;;20.80;67.80;;;;;;5112856;28;20165;-59
2021/08/21 08:21:02;;;;;;;3.75;2.47;;;20.90;67.80;;;;;;5113958;28;20222;-61
2021/08/21 08:23:27;;;;;;;5.63;3.20;;;20.90;67.90;;;;;;5113454;28;20301;-59
2021/08/21 08:25:53;;;;;;;3.83;2.88;;;20.90;68.00;;;;;;5112997;28;20580;-59
2021/08/21 08:28:18;;;;;;;3.72;2.80;;;20.90;68.10;;;;;;5114067;28;20173;-59
2021/08/21 08:30:47;;;;;;;7.32;3.58;;;20.90;68.00;;;;;;5113295;28;20640;-59
2021/08/21 08:33:12;;;;;;;4.78;2.85;;;20.90;68.00;;;;;;5113104;28;20169;-61
2021/08/21 08:35:38;;;;;;;3.05;2.75;;;20.90;68.10;;;;;;5113381;28;20525;-60
2021/08/21 08:38:03;;;;;;;4.03;2.67;;;20.90;68.10;;;;;;5113019;28;20188;-60
2021/08/21 08:40:29;;;;;;;5.68;2.50;;;20.90;68.10;;;;;;5113077;28;20296;-61
2021/08/21 08:42:54;;;;;;;4.97;2.67;;;21.00;68.40;;;;;;5113777;28;20326;-59
2021/08/21 08:45:20;;;;;;;4.95;3.15;;;21.00;68.50;;;;;;5094690;28;20194;-59
2021/08/21 08:47:45;;;;;;;3.15;2.47;;;21.00;68.20;;;;;;5113755;28;20619;-60
2021/08/21 08:50:12;;;;;;;4.00;2.47;;;21.00;68.10;;;;;;5113471;28;20564;-60
2021/08/21 08:52:39;;;;;;;4.43;2.67;;;21.00;68.20;;;;;;5118993;27;20180;-58
2021/08/21 08:55:06;;;;;;;2.60;2.38;;;21.00;68.60;;;;;;5121305;27;20564;-59
2021/08/21 08:57:41;;;;;;;2.58;2.22;;;21.10;68.60;;;;;;5121221;27;20176;-59
2021/08/21 09:00:12;;;;;;;4.78;2.65;;;21.10;68.50;;;;;;5120474;27;20197;-59
2021/08/21 09:02:42;;;;;;;3.10;2.22;;;21.10;68.70;;;;;;5122123;27;20267;-59
2021/08/21 09:05:10;;;;;;;2.95;2.63;;;21.10;68.50;;;;;;5123130;27;20263;-60
2021/08/21 09:07:45;;;;;;;2.65;2.45;;;21.10;68.60;;;;;;5120588;27;20453;-59
2021/08/21 09:10:12;;;;;;;2.75;2.50;;;21.10;68.80;;;;;;5121330;27;20161;-59
2021/08/21 09:12:37;;;;;;;6.35;2.83;;;21.10;68.90;;;;;;5121945;27;20183;-59
2021/08/21 09:15:22;;;;;;;3.70;3.00;;;21.10;68.70;;;;;;5122100;27;20169;-59
2021/08/21 09:18:06;;;;;;;3.17;2.63;;;21.10;68.80;;;;;;5122727;27;20168;-59
2021/08/21 09:20:47;;;;;;;2.75;2.05;;;21.20;68.50;;;;;;5119783;27;20205;-59
2021/08/21 09:23:23;;;;;;;2.90;2.40;;;21.20;68.50;;;;;;5120642;27;20212;-59
2021/08/21 09:25:51;;;;;;;3.22;2.35;;;21.20;68.40;;;;;;5120398;27;20616;-58
2021/08/21 09:28:21;;;;;;;3.13;2.80;;;21.20;68.30;;;;;;5121008;27;20511;-61
2021/08/21 09:30:47;;;;;;;4.55;2.58;;;21.20;68.30;;;;;;5122778;27;20224;-59
2021/08/21 09:33:16;;;;;;;2.97;2.70;;;21.30;68.60;;;;;;5120471;27;20608;-61
2021/08/21 09:35:42;;;;;;;3.15;2.75;;;21.30;68.40;;;;;;5119689;27;20658;-60
2021/08/21 09:38:08;;;;;;;5.57;2.90;;;21.30;68.40;;;;;;5122430;27;20302;-59
2021/08/21 09:40:36;;;;;;;3.83;2.45;;;21.30;68.40;;;;;;5120545;27;20205;-60
2021/08/21 09:43:02;;;;;;;3.10;2.72;;;21.40;68.30;;;;;;5120832;27;20205;-60
2021/08/21 09:45:27;;;;;;;3.20;2.90;;;21.40;68.40;;;;;;5122440;27;20268;-61
2021/08/21 09:48:00;;;;;;;2.78;2.55;;;21.30;68.50;;;;;;5120884;27;20268;-59
2021/08/21 09:50:25;;;;;;;2.55;2.35;;;21.40;68.40;;;;;;5119314;27;20569;-60
2021/08/21 09:52:58;;;;;;;4.28;2.70;;;21.40;68.50;;;;;;5121154;27;20213;-61
2021/08/21 09:55:25;;;;;;;2.90;2.65;;;21.40;68.50;;;;;;5102064;28;20244;-61
2021/08/21 09:58:15;;;;;;;3.13;2.80;;;21.40;68.50;;;;;;5103610;28;20174;-61
2021/08/21 10:00:42;;;;;;;2.85;2.58;;;21.50;68.50;;;;;;5124899;27;20262;-61
2021/08/21 10:03:07;;;;;;;3.65;2.30;;;21.50;68.50;;;;;;5120119;27;20263;-61
2021/08/21 10:05:33;;;;;;;3.22;2.90;;;21.50;68.40;;;;;;5121358;28;20259;-61
2021/08/21 10:08:03;;;;;;;3.55;2.85;;;21.50;68.30;;;;;;5119278;28;20164;-61
2021/08/21 10:10:34;;;;;;;3.17;2.60;;;21.60;68.40;;;;;;5119557;28;20248;-60
2021/08/21 10:13:08;;;;;;;4.15;2.67;;;21.60;68.30;;;;;;5120366;28;20175;-60
2021/08/21 10:15:38;;;;;;;4.05;2.53;;;21.60;68.30;;;;;;5120699;28;20586;-60
2021/08/21 10:18:04;;;;;;;3.90;2.70;;;21.60;68.30;;;;;;5119416;28;20305;-60
2021/08/21 10:20:30;;;;;;;2.85;2.65;;;21.60;68.40;;;;;;5121158;28;20304;-60
2021/08/21 10:22:55;;;;;;;4.40;2.08;;;21.60;68.40;;;;;;5121099;28;20173;-60
2021/08/21 10:25:23;;;;;;;3.95;2.53;;;21.60;68.40;;;;;;5100928;28;20153;-60
2021/08/21 10:27:55;;;;;;;5.18;2.70;;;21.70;68.40;;;;;;5103232;28;20570;-62
2021/08/21 10:30:21;;;;;;;3.80;2.40;;;21.60;68.40;;;;;;5100717;28;20176;-61
2021/08/21 10:33:06;;;;;;;2.85;2.28;;;21.70;68.40;;;;;;5122226;28;20583;-61
2021/08/21 10:35:54;;;;;;;2.70;2.28;;;21.70;68.30;;;;;;5125178;27;20187;-63
2021/08/21 10:38:28;;;;;;;3.28;2.38;;;21.70;68.30;;;;;;5124974;27;20256;-62
2021/08/21 10:41:17;;;;;;;3.58;2.60;;;21.80;68.20;;;;;;5115364;28;20723;-62
2021/08/21 10:43:44;;;;;;;4.20;2.20;;;21.80;68.10;;;;;;5104071;28;20177;-61
2021/08/21 10:46:10;;;;;;;2.50;2.30;;;21.80;68.10;;;;;;5115150;28;20181;-62
2021/08/21 10:48:38;;;;;;;5.38;2.90;;;21.90;68.10;;;;;;5115442;28;20169;-62
2021/08/21 10:51:05;;;;;;;3.10;2.53;;;21.80;68.10;;;;;;5115784;28;20181;-62
2021/08/21 10:53:31;;;;;;;5.68;2.40;;;21.80;68.20;;;;;;5114548;28;20173;-63
2021/08/21 10:55:58;;;;;;;3.00;2.40;;;21.80;68.10;;;;;;5115473;28;20181;-63
2021/08/21 10:58:27;;;;;;;3.10;2.70;;;21.90;68.10;;;;;;5115403;28;20194;-61
2021/08/21 11:01:11;;;;;;;3.63;2.42;;;21.90;68.10;;;;;;5114742;28;20296;-62
2021/08/21 11:03:37;;;;;;;3.50;2.38;;;21.90;68.10;;;;;;5096716;28;20173;-62
2021/08/21 11:06:04;;;;;;;2.28;2.15;;;22.00;68.10;;;;;;5114469;28;20184;-62
2021/08/21 11:08:35;;;;;;;3.63;2.08;;;22.00;68.00;;;;;;5114786;28;20182;-61
2021/08/21 11:11:18;;;;;;;4.03;2.72;;;22.00;68.00;;;;;;5115147;28;20175;-61
2021/08/21 11:14:02;;;;;;;2.58;2.20;;;22.00;67.90;;;;;;5114196;28;20247;-62
2021/08/21 11:16:51;;;;;;;3.97;2.30;;;22.00;67.90;;;;;;5114725;28;20177;-61
2021/08/21 11:19:25;;;;;;;2.25;2.05;;;22.00;67.80;;;;;;5114999;28;20562;-60
2021/08/21 11:21:51;;;;;;;2.25;2.05;;;22.10;67.80;;;;;;5114356;28;20627;-61
2021/08/21 11:24:22;;;;;;;4.07;2.53;;;22.00;67.70;;;;;;5115134;28;20232;-62
2021/08/21 11:26:48;;;;;;;2.20;2.00;;;22.00;67.60;;;;;;5114950;28;20235;-62
2021/08/21 11:29:15;;;;;;;3.53;2.70;;;22.10;67.60;;;;;;5114347;28;20177;-62
2021/08/21 11:31:54;;;;;;;3.38;2.22;;;22.10;67.50;;;;;;5114827;28;20169;-64
2021/08/21 11:34:23;;;;;;;3.72;2.33;;;22.10;67.40;;;;;;5113855;28;20230;-63
2021/08/21 11:36:49;;;;;;;2.25;2.15;;;22.00;67.70;;;;;;5096212;28;20593;-62
2021/08/21 11:39:14;;;;;;;2.72;2.30;;;22.10;67.50;;;;;;5114751;28;20283;-61
2021/08/21 11:41:43;;;;;;;3.28;2.45;;;22.10;67.30;;;;;;5113734;28;20235;-62
2021/08/21 11:44:09;;;;;;;4.05;2.40;;;22.20;67.30;;;;;;5096124;28;20173;-62
2021/08/21 11:46:34;;;;;;;2.75;2.00;;;22.20;67.30;;;;;;5114310;28;20535;-62
2021/08/21 11:49:07;;;;;;;2.40;2.20;;;22.10;67.40;;;;;;5114075;28;20169;-62
2021/08/21 11:51:37;;;;;;;4.10;2.55;;;22.00;67.50;;;;;;5114211;28;20180;-62
2021/08/21 11:54:06;;;;;;;2.83;2.58;;;22.00;67.70;;;;;;5114456;28;20165;-62
2021/08/21 11:56:32;;;;;;;3.45;2.58;;;22.00;67.60;;;;;;5095041;28;20181;-63
2021/08/21 11:59:06;;;;;;;2.40;2.20;;;22.10;67.50;;;;;;5114475;28;20205;-62
2021/08/21 12:01:34;;;;;;;2.85;2.63;;;22.00;67.40;;;;;;5096011;28;20254;-62
2021/08/21 12:06:30;;;;;;;3.25;2.42;;;22.00;67.40;;;;;;5114085;28;20173;-63
2021/08/21 12:09:15;;;;;;;3.30;2.40;;;22.00;67.60;;;;;;5114384;28;20181;-62
2021/08/21 12:11:47;;;;;;;2.40;2.20;;;21.90;67.70;;;;;;5114085;28;20178;-62
2021/08/21 12:14:14;;;;;;;2.38;2.15;;;21.90;67.70;;;;;;5114131;28;20177;-62
2021/08/21 12:16:40;;;;;;;2.85;2.55;;;21.90;67.90;;;;;;5113044;28;20192;-62
2021/08/21 12:19:05;;;;;;;2.60;2.40;;;22.00;68.00;;;;;;5095873;28;20201;-61
2021/08/21 12:21:31;;;;;;;2.92;2.38;;;22.00;67.80;;;;;;5115220;27;20631;-61
2021/08/21 12:23:57;;;;;;;2.20;2.10;;;22.00;67.90;;;;;;5112663;27;20311;-61
2021/08/21 12:26:36;;;;;;;4.15;2.80;;;21.90;67.80;;;;;;5113780;28;20173;-61
2021/08/21 12:29:03;;;;;;;3.35;2.58;;;21.90;67.80;;;;;;5121023;27;20638;-61
2021/08/21 12:31:35;;;;;;;2.28;2.08;;;22.00;67.80;;;;;;5133505;27;20542;-61
2021/08/21 12:34:01;;;;;;;2.17;1.98;;;22.00;67.70;;;;;;5134616;27;20233;-61
2021/08/21 12:36:26;;;;;;;3.20;2.30;;;22.00;67.50;;;;;;5134204;27;20184;-62
2021/08/21 12:39:08;;;;;;;2.47;2.28;;;22.00;67.50;;;;;;5115290;27;20173;-62
2021/08/21 12:41:55;;;;;;;3.22;2.25;;;22.00;67.40;;;;;;5112487;28;20205;-62
2021/08/21 12:44:41;;;;;;;2.42;2.22;;;22.00;67.30;;;;;;5111947;28;20207;-62
2021/08/21 12:47:20;;;;;;;3.15;2.30;;;22.00;67.30;;;;;;5113699;28;20591;-61
2021/08/21 12:49:47;;;;;;;5.47;2.40;;;22.10;67.30;;;;;;5113879;28;20177;-62
2021/08/21 12:52:19;;;;;;;2.40;2.10;;;22.10;67.20;;;;;;5113041;28;20173;-62